MicroStrategy Current Ratio 2006-2019 | MSTR

MicroStrategy current ratio from 2006 to 2019. Current ratio can be defined as a liquidity ratio that measures a company's ability to pay short-term obligations.
MicroStrategy Current Ratio Historical Data
Date Current Assets Current Liabilities Current Ratio
2019-03-31 $0.72B $0.26B 2.72
2018-12-31 $0.78B $0.26B 3.01
2018-09-30 $0.84B $0.21B 3.96
2018-06-30 $0.85B $0.24B 3.61
2018-03-31 $0.88B $0.26B 3.35
2017-12-31 $0.86B $0.27B 3.18
2017-09-30 $0.73B $0.18B 4.13
2017-06-30 $0.72B $0.18B 3.94
2017-03-31 $0.70B $0.19B 3.79
2016-12-31 $0.69B $0.19B 3.69
2016-09-30 $0.65B $0.18B 3.55
2016-06-30 $0.62B $0.19B 3.28
2016-03-31 $0.61B $0.20B 3.11
2015-12-31 $0.57B $0.17B 3.27
2015-09-30 $0.54B $0.18B 2.96
2015-06-30 $0.51B $0.19B 2.73
2015-03-31 $0.48B $0.20B 2.45
2014-12-31 $0.46B $0.20B 2.34
2014-09-30 $0.46B $0.22B 2.09
2014-06-30 $0.47B $0.23B 2.02
2014-03-31 $0.46B $0.23B 2.02
2013-12-31 $0.48B $0.23B 2.06
2013-09-30 $0.44B $0.22B 2.01
2013-06-30 $0.42B $0.21B 2.02
2013-03-31 $0.43B $0.22B 1.99
2012-12-31 $0.36B $0.22B 1.65
2012-09-30 $0.34B $0.21B 1.64
2012-06-30 $0.32B $0.19B 1.63
2012-03-31 $0.33B $0.22B 1.52
2011-12-31 $0.34B $0.22B 1.57
2011-09-30 $0.31B $0.19B 1.60
2011-06-30 $0.31B $0.19B 1.59
2011-03-31 $0.31B $0.19B 1.63
2010-12-31 $0.30B $0.19B 1.59
2010-09-30 $0.28B $0.17B 1.65
2010-06-30 $0.29B $0.15B 1.88
2010-03-31 $0.30B $0.15B 2.00
2009-12-31 $0.31B $0.15B 2.00
2009-09-30 $0.28B $0.14B 2.02
2009-06-30 $0.24B $0.13B 1.86
2009-03-31 $0.23B $0.13B 1.72
2008-12-31 $0.21B $0.14B 1.50
2008-09-30 $0.22B $0.16B 1.33
2008-06-30 $0.21B $0.14B 1.49
2008-03-31 $0.20B $0.13B 1.47
2007-12-31 $0.18B $0.13B 1.43
2007-09-30 $0.17B $0.12B 1.46
2007-06-30 $0.16B $0.11B 1.42
2007-03-31 $0.15B $0.12B 1.32
2006-12-31 $0.18B $0.11B 1.56
2006-09-30 $0.13B $0.10B 1.27
2006-06-30 $0.12B $0.10B 1.21
2006-03-31 $0.15B $0.10B 1.54
2005-12-31 $0.17B $0.09B 1.87
2005-09-30 $0.14B $0.08B 1.70
2005-06-30 $0.12B $0.08B 1.40
2005-03-31 $0.19B $0.09B 2.25
Sector Industry Market Cap Revenue
Computer and Technology Computer Software $1.266B $0.498B
MicroStrategy Incorporated, a leading worldwide provider of business intelligence software, today announced that GT Nexus has selected MicroStrategy to power the customer-facing analytics and reporting capabilities on its Global Logistics portal. The GT Nexus portal is an on demand technology platform that is used by importers, exporters, transportation carriers, suppliers, banks, and other partners to manage goods that are moving around the world. The GT Nexus system captures and stores hard-to-get data associated with global supply chains, and then fuels a range of Web applications that can be used by constituents to lower supply chain costs and improve control. MicroStrategy will help GT Nexus to deliver a wide range of analytics and reporting capabilities to its customers, which include Home Depot, Kmart, Xerox, Weyerhaeuser, and American Eagle Outfitters.
Stock Name Country Market Cap PE Ratio
Microsoft (MSFT) United States $1000.000B 30.80
Oracle (ORCL) United States $198.581B 18.55
SAP SE (SAP) Germany $168.465B 32.49
Adobe (ADBE) United States $149.884B 53.60
Salesforce, Inc (CRM) United States $123.888B 102.34
Intuit (INTU) United States $73.249B 47.33
VMware (VMW) United States $70.470B 35.00
Dassault Systemes SA (DASTY) France $40.792B 45.64
Autodesk (ADSK) United States $38.150B 526.39
Cadence Design Systems (CDNS) United States $21.133B 53.71
Synopsys (SNPS) United States $20.605B 34.71
ANSYS (ANSS) United States $17.702B 40.72
SS&C Technologies Holdings (SSNC) United States $14.899B 19.76
Symantec (SYMC) United States $14.120B 19.86
Citrix Systems (CTXS) United States $13.367B 23.78
Open Text (OTEX) Canada $11.532B 41.91
PTC (PTC) United States $10.402B 85.30
Aspen Technology (AZPN) United States $9.309B 48.38
Trend Micro (TMICY) Japan $6.276B 24.28
Pegasystems (PEGA) United States $6.091B 0.00
Konami (KNMCY) Japan $6.007B 21.36
Nuance Communications (NUAN) United States $4.764B 18.45
Manhattan Associates (MANH) United States $4.640B 45.75
Blackbaud (BLKB) United States $4.148B 52.06
ACI Worldwide (ACIW) United States $3.831B 49.50
Cornerstone OnDemand (CSOD) United States $3.688B 0.00
Verint Systems (VRNT) United States $3.652B 21.95
Descartes Systems Group (DSGX) Canada $3.149B 93.57
PROS Holdings (PRO) United States $2.577B 0.00
CommVault Systems (CVLT) United States $2.267B 96.73
Bottomline Technologies (EPAY) United States $1.889B 57.89
Progress Software (PRGS) United States $1.860B 19.80
Monotype Imaging Holdings (TYPE) United States $0.715B 22.43
QAD (QADB) United States $0.648B 117.82
Rosetta Stone (RST) United States $0.576B 0.00
Simulations Plus (SLP) United States $0.559B 72.52
Magic Software Enterprises (MGIC) Israel $0.434B 15.86
Avid Technology (AVID) United States $0.429B 32.94
American Software (AMSWA) United States $0.415B 46.00
OptimizeRx (OPRX) United States $0.185B 383.00
GlobalSCAPE (GSB) United States $0.163B 24.33
Icad Inc (ICAD) United States $0.133B 0.00
Park City (PCYG) United States $0.102B 22.22
Smith Micro Software (SMSI) United States $0.097B 43.43
ServiceSource (SREV) United States $0.095B 0.00
ImageWare Systems (IWSY) United States $0.090B 0.00
NetSol Technologies (NTWK) United States $0.066B 10.43